sensor_id;sensor_type;location;lat;lon;timestamp;pressure;altitude;pressure_sealevel;temperature;humidity
52957;BME280;38819;42.692;23.342;2023-08-08T00:01:57;95147.84;;;18.29;72.71
52957;BME280;38819;42.692;23.342;2023-08-08T00:04:23;95152.88;;;18.27;72.14
52957;BME280;38819;42.692;23.342;2023-08-08T00:06:48;95162.09;;;18.35;70.54
52957;BME280;38819;42.692;23.342;2023-08-08T00:09:13;95156.03;;;18.41;70.79
52957;BME280;38819;42.692;23.342;2023-08-08T00:11:39;95157.97;;;18.41;69.88
52957;BME280;38819;42.692;23.342;2023-08-08T00:14:05;95158.88;;;18.45;70.28
52957;BME280;38819;42.692;23.342;2023-08-08T00:16:31;95148.84;;;18.61;68.96
52957;BME280;38819;42.692;23.342;2023-08-08T00:18:57;95148.00;;;18.61;68.23
52957;BME280;38819;42.692;23.342;2023-08-08T00:21:22;95155.47;;;18.48;68.98
52957;BME280;38819;42.692;23.342;2023-08-08T00:23:48;95145.91;;;18.29;68.83
52957;BME280;38819;42.692;23.342;2023-08-08T00:26:13;95148.97;;;18.40;68.17
52957;BME280;38819;42.692;23.342;2023-08-08T00:28:38;95148.28;;;18.43;68.90
52957;BME280;38819;42.692;23.342;2023-08-08T00:31:04;95157.28;;;18.44;68.97
52957;BME280;38819;42.692;23.342;2023-08-08T00:33:29;95159.22;;;18.43;68.64
52957;BME280;38819;42.692;23.342;2023-08-08T00:35:55;95164.34;;;18.45;68.41
52957;BME280;38819;42.692;23.342;2023-08-08T00:38:20;95164.81;;;18.35;69.23
52957;BME280;38819;42.692;23.342;2023-08-08T00:40:46;95169.38;;;18.43;68.84
52957;BME280;38819;42.692;23.342;2023-08-08T00:43:11;95160.69;;;18.41;68.03
52957;BME280;38819;42.692;23.342;2023-08-08T00:45:37;95162.06;;;18.47;67.56
52957;BME280;38819;42.692;23.342;2023-08-08T00:48:03;95165.94;;;18.46;67.81
52957;BME280;38819;42.692;23.342;2023-08-08T00:50:29;95175.50;;;18.52;66.58
52957;BME280;38819;42.692;23.342;2023-08-08T00:52:54;95176.09;;;18.58;66.49
52957;BME280;38819;42.692;23.342;2023-08-08T00:55:21;95180.84;;;18.61;66.61
52957;BME280;38819;42.692;23.342;2023-08-08T00:57:46;95184.50;;;18.65;67.00
52957;BME280;38819;42.692;23.342;2023-08-08T01:00:12;95180.59;;;18.66;66.58
52957;BME280;38819;42.692;23.342;2023-08-08T01:02:38;95178.78;;;18.70;66.54
52957;BME280;38819;42.692;23.342;2023-08-08T01:05:04;95186.06;;;18.66;66.27
52957;BME280;38819;42.692;23.342;2023-08-08T01:07:36;95182.78;;;18.60;66.56
52957;BME280;38819;42.692;23.342;2023-08-08T01:10:10;95192.69;;;18.65;65.47
52957;BME280;38819;42.692;23.342;2023-08-08T01:12:41;95195.66;;;18.60;65.79
52957;BME280;38819;42.692;23.342;2023-08-08T01:15:08;95198.97;;;18.53;65.44
52957;BME280;38819;42.692;23.342;2023-08-08T01:17:35;95200.69;;;18.45;65.70
52957;BME280;38819;42.692;23.342;2023-08-08T01:20:04;95200.34;;;18.47;65.92
52957;BME280;38819;42.692;23.342;2023-08-08T01:22:36;95188.50;;;18.30;65.82
52957;BME280;38819;42.692;23.342;2023-08-08T01:25:03;95198.19;;;18.15;66.42
52957;BME280;38819;42.692;23.342;2023-08-08T01:27:30;95191.34;;;17.97;66.79
52957;BME280;38819;42.692;23.342;2023-08-08T01:29:55;95200.94;;;17.91;67.45
52957;BME280;38819;42.692;23.342;2023-08-08T01:32:21;95187.13;;;17.87;67.82
52957;BME280;38819;42.692;23.342;2023-08-08T01:34:47;95196.59;;;17.90;67.21
52957;BME280;38819;42.692;23.342;2023-08-08T01:37:29;95194.66;;;17.90;67.61
52957;BME280;38819;42.692;23.342;2023-08-08T01:39:59;95206.91;;;17.84;67.94
52957;BME280;38819;42.692;23.342;2023-08-08T01:42:25;95212.31;;;17.93;67.87
52957;BME280;38819;42.692;23.342;2023-08-08T01:44:53;95218.31;;;17.86;67.82
52957;BME280;38819;42.692;23.342;2023-08-08T01:47:18;95226.41;;;17.95;67.49
52957;BME280;38819;42.692;23.342;2023-08-08T01:49:43;95230.91;;;17.78;67.99
52957;BME280;38819;42.692;23.342;2023-08-08T01:52:09;95234.56;;;17.83;68.04
52957;BME280;38819;42.692;23.342;2023-08-08T01:54:34;95228.19;;;17.78;68.04
52957;BME280;38819;42.692;23.342;2023-08-08T01:57:00;95237.38;;;17.74;68.25
52957;BME280;38819;42.692;23.342;2023-08-08T01:59:25;95232.41;;;17.76;68.52
52957;BME280;38819;42.692;23.342;2023-08-08T02:01:51;95249.81;;;17.84;68.10
52957;BME280;38819;42.692;23.342;2023-08-08T02:04:16;95251.31;;;17.81;68.43
52957;BME280;38819;42.692;23.342;2023-08-08T02:06:41;95251.63;;;17.80;68.34
52957;BME280;38819;42.692;23.342;2023-08-08T02:09:07;95247.09;;;17.84;68.39
52957;BME280;38819;42.692;23.342;2023-08-08T02:11:32;95248.06;;;17.88;68.23
52957;BME280;38819;42.692;23.342;2023-08-08T02:13:58;95248.16;;;17.91;68.49
52957;BME280;38819;42.692;23.342;2023-08-08T02:16:23;95248.19;;;18.04;67.97
52957;BME280;38819;42.692;23.342;2023-08-08T02:18:49;95252.34;;;17.89;68.30
52957;BME280;38819;42.692;23.342;2023-08-08T02:21:14;95262.16;;;17.90;68.15
52957;BME280;38819;42.692;23.342;2023-08-08T02:23:40;95262.84;;;17.99;68.14
52957;BME280;38819;42.692;23.342;2023-08-08T02:26:05;95262.28;;;18.06;67.64
52957;BME280;38819;42.692;23.342;2023-08-08T02:28:31;95265.25;;;18.01;67.73
52957;BME280;38819;42.692;23.342;2023-08-08T02:30:56;95274.69;;;17.91;68.22
52957;BME280;38819;42.692;23.342;2023-08-08T02:33:22;95279.34;;;17.90;68.26
52957;BME280;38819;42.692;23.342;2023-08-08T02:35:47;95279.13;;;17.95;68.07
52957;BME280;38819;42.692;23.342;2023-08-08T02:38:12;95273.63;;;17.83;68.63
52957;BME280;38819;42.692;23.342;2023-08-08T02:40:38;95272.34;;;17.81;68.33
52957;BME280;38819;42.692;23.342;2023-08-08T02:43:04;95268.41;;;17.90;68.29
52957;BME280;38819;42.692;23.342;2023-08-08T02:45:30;95280.63;;;17.93;67.90
52957;BME280;38819;42.692;23.342;2023-08-08T02:47:55;95287.53;;;17.90;68.06
52957;BME280;38819;42.692;23.342;2023-08-08T02:50:20;95291.25;;;17.86;68.63
52957;BME280;38819;42.692;23.342;2023-08-08T02:52:46;95296.34;;;17.96;68.25
52957;BME280;38819;42.692;23.342;2023-08-08T02:55:11;95303.50;;;18.01;67.93
52957;BME280;38819;42.692;23.342;2023-08-08T02:57:37;95298.63;;;18.06;67.72
52957;BME280;38819;42.692;23.342;2023-08-08T03:00:02;95310.47;;;18.10;67.65
52957;BME280;38819;42.692;23.342;2023-08-08T03:02:29;95310.47;;;18.10;67.26
52957;BME280;38819;42.692;23.342;2023-08-08T03:04:55;95309.34;;;18.11;67.64
52957;BME280;38819;42.692;23.342;2023-08-08T03:07:20;95299.81;;;18.18;67.72
52957;BME280;38819;42.692;23.342;2023-08-08T03:09:45;95291.22;;;18.07;68.19
52957;BME280;38819;42.692;23.342;2023-08-08T03:12:11;95297.06;;;18.18;67.79
52957;BME280;38819;42.692;23.342;2023-08-08T03:14:36;95290.44;;;18.19;67.41
52957;BME280;38819;42.692;23.342;2023-08-08T03:17:03;95299.81;;;18.18;67.33
52957;BME280;38819;42.692;23.342;2023-08-08T03:19:28;95307.63;;;18.19;67.40
52957;BME280;38819;42.692;23.342;2023-08-08T03:21:54;95313.22;;;18.10;67.40
52957;BME280;38819;42.692;23.342;2023-08-08T03:24:19;95304.66;;;18.12;67.57
52957;BME280;38819;42.692;23.342;2023-08-08T03:26:45;95307.06;;;18.13;67.38
52957;BME280;38819;42.692;23.342;2023-08-08T03:29:10;95312.97;;;18.03;67.43
52957;BME280;38819;42.692;23.342;2023-08-08T03:31:36;95316.81;;;17.90;68.16
52957;BME280;38819;42.692;23.342;2023-08-08T03:34:02;95316.03;;;17.89;68.25
52957;BME280;38819;42.692;23.342;2023-08-08T03:36:27;95315.53;;;17.87;68.24
52957;BME280;38819;42.692;23.342;2023-08-08T03:38:53;95313.09;;;17.86;68.50
52957;BME280;38819;42.692;23.342;2023-08-08T03:41:19;95309.00;;;17.80;68.49
52957;BME280;38819;42.692;23.342;2023-08-08T03:43:44;95311.00;;;17.91;68.46
52957;BME280;38819;42.692;23.342;2023-08-08T03:46:09;95315.47;;;17.96;68.12
52957;BME280;38819;42.692;23.342;2023-08-08T03:48:37;95326.25;;;17.92;67.55
52957;BME280;38819;42.692;23.342;2023-08-08T03:51:02;95321.94;;;17.91;68.07
52957;BME280;38819;42.692;23.342;2023-08-08T03:53:28;95320.94;;;17.96;67.72
52957;BME280;38819;42.692;23.342;2023-08-08T03:55:53;95308.00;;;17.84;67.97
52957;BME280;38819;42.692;23.342;2023-08-08T03:58:19;95300.78;;;18.01;67.63
52957;BME280;38819;42.692;23.342;2023-08-08T04:00:44;95310.78;;;17.96;67.26
52957;BME280;38819;42.692;23.342;2023-08-08T04:03:15;95318.19;;;17.96;67.34
52957;BME280;38819;42.692;23.342;2023-08-08T04:05:44;95320.22;;;17.99;67.14
52957;BME280;38819;42.692;23.342;2023-08-08T04:08:11;95330.50;;;18.02;66.91
52957;BME280;38819;42.692;23.342;2023-08-08T04:10:36;95346.88;;;18.02;66.80
52957;BME280;38819;42.692;23.342;2023-08-08T04:13:02;95343.38;;;18.02;66.84
52957;BME280;38819;42.692;23.342;2023-08-08T04:15:27;95355.19;;;17.93;66.95
52957;BME280;38819;42.692;23.342;2023-08-08T04:17:53;95358.47;;;17.87;67.23
52957;BME280;38819;42.692;23.342;2023-08-08T04:20:18;95357.13;;;17.72;67.32
52957;BME280;38819;42.692;23.342;2023-08-08T04:22:44;95349.34;;;17.62;67.62
52957;BME280;38819;42.692;23.342;2023-08-08T04:25:09;95355.66;;;17.74;67.79
52957;BME280;38819;42.692;23.342;2023-08-08T04:27:35;95354.34;;;17.59;68.03
52957;BME280;38819;42.692;23.342;2023-08-08T04:30:00;95372.25;;;17.69;67.75
52957;BME280;38819;42.692;23.342;2023-08-08T04:32:26;95370.31;;;17.70;67.93
52957;BME280;38819;42.692;23.342;2023-08-08T04:34:51;95370.97;;;17.67;68.23
52957;BME280;38819;42.692;23.342;2023-08-08T04:37:16;95372.31;;;17.60;68.03
52957;BME280;38819;42.692;23.342;2023-08-08T04:39:42;95370.41;;;17.61;68.02
52957;BME280;38819;42.692;23.342;2023-08-08T04:42:07;95374.19;;;17.48;68.19
52957;BME280;38819;42.692;23.342;2023-08-08T04:44:33;95361.66;;;17.47;68.11
52957;BME280;38819;42.692;23.342;2023-08-08T04:46:58;95353.06;;;17.57;67.72
52957;BME280;38819;42.692;23.342;2023-08-08T04:49:23;95351.78;;;17.75;67.58
52957;BME280;38819;42.692;23.342;2023-08-08T04:51:49;95350.56;;;17.85;67.01
52957;BME280;38819;42.692;23.342;2023-08-08T04:54:14;95358.38;;;17.95;66.44
52957;BME280;38819;42.692;23.342;2023-08-08T04:56:40;95370.47;;;17.94;66.04
52957;BME280;38819;42.692;23.342;2023-08-08T04:59:05;95379.03;;;18.05;65.63
52957;BME280;38819;42.692;23.342;2023-08-08T05:01:30;95380.72;;;17.98;65.76
52957;BME280;38819;42.692;23.342;2023-08-08T05:03:56;95386.97;;;17.98;65.51
52957;BME280;38819;42.692;23.342;2023-08-08T05:06:21;95396.09;;;18.02;65.59
52957;BME280;38819;42.692;23.342;2023-08-08T05:08:49;95401.22;;;18.04;65.80
52957;BME280;38819;42.692;23.342;2023-08-08T05:11:15;95405.78;;;18.00;65.74
52957;BME280;38819;42.692;23.342;2023-08-08T05:13:41;95418.03;;;17.93;66.30
52957;BME280;38819;42.692;23.342;2023-08-08T05:16:07;95427.34;;;17.92;66.24
52957;BME280;38819;42.692;23.342;2023-08-08T05:18:33;95424.78;;;17.96;66.30
52957;BME280;38819;42.692;23.342;2023-08-08T05:20:58;95435.09;;;17.90;66.46
52957;BME280;38819;42.692;23.342;2023-08-08T05:23:24;95434.00;;;18.04;65.70
52957;BME280;38819;42.692;23.342;2023-08-08T05:25:49;95421.22;;;17.95;66.16
52957;BME280;38819;42.692;23.342;2023-08-08T05:28:15;95429.78;;;17.85;66.43
52957;BME280;38819;42.692;23.342;2023-08-08T05:30:40;95429.97;;;17.89;66.43
52957;BME280;38819;42.692;23.342;2023-08-08T05:33:05;95425.00;;;17.82;66.28
52957;BME280;38819;42.692;23.342;2023-08-08T05:35:31;95435.88;;;17.70;66.64
52957;BME280;38819;42.692;23.342;2023-08-08T05:37:57;95441.00;;;17.71;66.11
52957;BME280;38819;42.692;23.342;2023-08-08T05:40:22;95473.38;;;17.82;65.79
52957;BME280;38819;42.692;23.342;2023-08-08T05:42:48;95452.19;;;17.78;65.98
52957;BME280;38819;42.692;23.342;2023-08-08T05:45:13;95453.88;;;17.92;65.60
52957;BME280;38819;42.692;23.342;2023-08-08T05:47:38;95470.47;;;17.87;64.89
52957;BME280;38819;42.692;23.342;2023-08-08T05:50:05;95462.31;;;17.78;65.89
52957;BME280;38819;42.692;23.342;2023-08-08T05:52:31;95464.41;;;17.81;65.19
52957;BME280;38819;42.692;23.342;2023-08-08T05:54:56;95476.41;;;17.89;65.22
52957;BME280;38819;42.692;23.342;2023-08-08T05:57:24;95480.09;;;17.93;65.02
52957;BME280;38819;42.692;23.342;2023-08-08T05:59:49;95469.63;;;17.95;64.60
52957;BME280;38819;42.692;23.342;2023-08-08T06:02:15;95471.94;;;18.05;63.34
52957;BME280;38819;42.692;23.342;2023-08-08T06:04:40;95479.97;;;17.89;64.43
52957;BME280;38819;42.692;23.342;2023-08-08T06:07:06;95487.50;;;17.84;65.09
52957;BME280;38819;42.692;23.342;2023-08-08T06:09:31;95486.47;;;17.97;64.53
52957;BME280;38819;42.692;23.342;2023-08-08T06:11:57;95477.03;;;17.86;65.27
52957;BME280;38819;42.692;23.342;2023-08-08T06:14:23;95483.84;;;17.80;64.76
52957;BME280;38819;42.692;23.342;2023-08-08T06:16:48;95466.47;;;17.84;65.20
52957;BME280;38819;42.692;23.342;2023-08-08T06:19:14;95479.88;;;17.98;64.08
52957;BME280;38819;42.692;23.342;2023-08-08T06:21:41;95482.00;;;17.92;63.41
52957;BME280;38819;42.692;23.342;2023-08-08T06:24:06;95481.41;;;18.08;64.03
52957;BME280;38819;42.692;23.342;2023-08-08T06:26:32;95482.09;;;18.05;62.37
52957;BME280;38819;42.692;23.342;2023-08-08T06:28:57;95488.81;;;18.07;62.84
52957;BME280;38819;42.692;23.342;2023-08-08T06:31:23;95484.50;;;18.06;62.62
52957;BME280;38819;42.692;23.342;2023-08-08T06:33:48;95477.66;;;18.12;62.41
52957;BME280;38819;42.692;23.342;2023-08-08T06:36:14;95477.88;;;18.07;61.88
52957;BME280;38819;42.692;23.342;2023-08-08T06:38:39;95494.88;;;18.13;62.73
52957;BME280;38819;42.692;23.342;2023-08-08T06:41:04;95479.03;;;18.06;63.02
52957;BME280;38819;42.692;23.342;2023-08-08T06:43:30;95475.13;;;18.07;62.76
52957;BME280;38819;42.692;23.342;2023-08-08T06:45:56;95482.81;;;18.14;62.72
52957;BME280;38819;42.692;23.342;2023-08-08T06:48:22;95472.06;;;18.30;63.08
52957;BME280;38819;42.692;23.342;2023-08-08T06:50:48;95482.78;;;18.35;63.31
52957;BME280;38819;42.692;23.342;2023-08-08T06:53:14;95479.59;;;18.33;61.47
52957;BME280;38819;42.692;23.342;2023-08-08T06:55:40;95477.75;;;18.25;61.88
52957;BME280;38819;42.692;23.342;2023-08-08T06:58:06;95484.94;;;18.29;59.82
52957;BME280;38819;42.692;23.342;2023-08-08T07:00:31;95482.38;;;18.45;58.73
52957;BME280;38819;42.692;23.342;2023-08-08T07:02:56;95488.13;;;18.31;57.82
52957;BME280;38819;42.692;23.342;2023-08-08T07:05:22;95467.38;;;18.30;57.32
52957;BME280;38819;42.692;23.342;2023-08-08T07:07:49;95499.53;;;18.33;56.59
52957;BME280;38819;42.692;23.342;2023-08-08T07:10:15;95485.66;;;18.39;55.81
52957;BME280;38819;42.692;23.342;2023-08-08T07:12:41;95477.13;;;18.19;55.99
52957;BME280;38819;42.692;23.342;2023-08-08T07:15:08;95461.78;;;18.27;56.52
52957;BME280;38819;42.692;23.342;2023-08-08T07:17:33;95485.22;;;18.49;55.68
52957;BME280;38819;42.692;23.342;2023-08-08T07:19:59;95486.09;;;18.41;55.42
52957;BME280;38819;42.692;23.342;2023-08-08T07:22:25;95488.84;;;18.41;55.75
52957;BME280;38819;42.692;23.342;2023-08-08T07:24:50;95488.38;;;18.39;55.78
52957;BME280;38819;42.692;23.342;2023-08-08T07:27:16;95478.19;;;18.48;55.28
52957;BME280;38819;42.692;23.342;2023-08-08T07:29:41;95474.47;;;18.65;55.19
52957;BME280;38819;42.692;23.342;2023-08-08T07:32:07;95487.81;;;18.79;54.53
52957;BME280;38819;42.692;23.342;2023-08-08T07:34:32;95482.69;;;18.77;54.48
52957;BME280;38819;42.692;23.342;2023-08-08T07:36:59;95484.63;;;18.77;53.92
52957;BME280;38819;42.692;23.342;2023-08-08T07:39:24;95491.72;;;18.78;53.55
52957;BME280;38819;42.692;23.342;2023-08-08T07:41:50;95488.63;;;18.79;53.10
52957;BME280;38819;42.692;23.342;2023-08-08T07:44:16;95492.63;;;18.82;52.93
52957;BME280;38819;42.692;23.342;2023-08-08T07:46:41;95501.13;;;19.01;53.14
52957;BME280;38819;42.692;23.342;2023-08-08T07:49:07;95497.91;;;18.99;52.13
52957;BME280;38819;42.692;23.342;2023-08-08T07:51:35;95494.28;;;18.95;52.12
52957;BME280;38819;42.692;23.342;2023-08-08T07:54:00;95488.03;;;19.07;52.21
52957;BME280;38819;42.692;23.342;2023-08-08T07:56:26;95496.13;;;19.03;51.63
52957;BME280;38819;42.692;23.342;2023-08-08T07:58:51;95494.16;;;18.92;51.00
52957;BME280;38819;42.692;23.342;2023-08-08T08:01:18;95496.50;;;18.81;50.98
52957;BME280;38819;42.692;23.342;2023-08-08T08:03:44;95499.56;;;18.79;51.64
52957;BME280;38819;42.692;23.342;2023-08-08T08:06:09;95478.16;;;18.81;52.27
52957;BME280;38819;42.692;23.342;2023-08-08T08:08:34;95499.97;;;18.90;51.97
52957;BME280;38819;42.692;23.342;2023-08-08T08:11:01;95487.69;;;18.96;51.55
52957;BME280;38819;42.692;23.342;2023-08-08T08:13:27;95478.19;;;19.06;51.78
52957;BME280;38819;42.692;23.342;2023-08-08T08:15:52;95489.38;;;19.01;51.61
52957;BME280;38819;42.692;23.342;2023-08-08T08:18:18;95478.53;;;18.92;51.28
52957;BME280;38819;42.692;23.342;2023-08-08T08:20:45;95474.41;;;18.86;52.14
52957;BME280;38819;42.692;23.342;2023-08-08T08:23:10;95494.50;;;19.02;51.84
52957;BME280;38819;42.692;23.342;2023-08-08T08:25:35;95494.88;;;19.13;51.08
52957;BME280;38819;42.692;23.342;2023-08-08T08:28:01;95479.59;;;19.12;51.60
52957;BME280;38819;42.692;23.342;2023-08-08T08:30:26;95481.97;;;19.14;51.13
52957;BME280;38819;42.692;23.342;2023-08-08T08:32:52;95492.38;;;19.33;51.11
52957;BME280;38819;42.692;23.342;2023-08-08T08:35:18;95484.06;;;19.41;51.01
52957;BME280;38819;42.692;23.342;2023-08-08T08:37:44;95495.34;;;19.52;51.15
52957;BME280;38819;42.692;23.342;2023-08-08T08:40:10;95495.44;;;19.56;50.29
52957;BME280;38819;42.692;23.342;2023-08-08T08:42:37;95480.50;;;19.66;50.42
52957;BME280;38819;42.692;23.342;2023-08-08T08:45:04;95483.56;;;19.64;50.97
52957;BME280;38819;42.692;23.342;2023-08-08T08:47:31;95472.97;;;19.50;50.63
52957;BME280;38819;42.692;23.342;2023-08-08T08:49:57;95488.72;;;19.53;49.80
52957;BME280;38819;42.692;23.342;2023-08-08T08:52:23;95487.22;;;19.56;50.21
52957;BME280;38819;42.692;23.342;2023-08-08T08:54:50;95475.94;;;19.57;50.54
52957;BME280;38819;42.692;23.342;2023-08-08T08:57:16;95479.56;;;19.74;50.54
52957;BME280;38819;42.692;23.342;2023-08-08T08:59:41;95487.00;;;19.61;50.38
52957;BME280;38819;42.692;23.342;2023-08-08T09:02:07;95474.00;;;19.58;50.00
52957;BME280;38819;42.692;23.342;2023-08-08T09:04:33;95490.78;;;19.56;49.89
52957;BME280;38819;42.692;23.342;2023-08-08T09:07:00;95489.09;;;19.76;49.67
52957;BME280;38819;42.692;23.342;2023-08-08T09:09:26;95493.06;;;19.79;49.65
52957;BME280;38819;42.692;23.342;2023-08-08T09:11:52;95492.03;;;19.71;48.49
52957;BME280;38819;42.692;23.342;2023-08-08T09:14:22;95478.78;;;19.61;49.63
52957;BME280;38819;42.692;23.342;2023-08-08T09:16:49;95468.16;;;19.59;50.77
52957;BME280;38819;42.692;23.342;2023-08-08T09:19:15;95467.03;;;19.60;50.71
52957;BME280;38819;42.692;23.342;2023-08-08T09:21:42;95461.69;;;19.76;50.46
52957;BME280;38819;42.692;23.342;2023-08-08T09:24:08;95479.47;;;19.70;50.51
52957;BME280;38819;42.692;23.342;2023-08-08T09:26:34;95478.13;;;19.76;51.13
52957;BME280;38819;42.692;23.342;2023-08-08T09:29:03;95480.03;;;19.88;50.74
52957;BME280;38819;42.692;23.342;2023-08-08T09:31:29;95485.19;;;19.90;49.86
52957;BME280;38819;42.692;23.342;2023-08-08T09:33:57;95481.41;;;19.82;48.87
52957;BME280;38819;42.692;23.342;2023-08-08T09:36:23;95492.63;;;19.77;48.55
52957;BME280;38819;42.692;23.342;2023-08-08T09:38:49;95495.22;;;19.86;49.31
52957;BME280;38819;42.692;23.342;2023-08-08T09:41:15;95475.91;;;19.94;48.74
52957;BME280;38819;42.692;23.342;2023-08-08T09:43:44;95470.41;;;20.07;48.96
52957;BME280;38819;42.692;23.342;2023-08-08T09:46:09;95492.78;;;20.09;47.88
52957;BME280;38819;42.692;23.342;2023-08-08T09:48:36;95496.31;;;20.09;48.31
52957;BME280;38819;42.692;23.342;2023-08-08T09:51:04;95485.56;;;20.16;48.38
52957;BME280;38819;42.692;23.342;2023-08-08T09:53:30;95484.63;;;20.25;48.19
52957;BME280;38819;42.692;23.342;2023-08-08T09:55:56;95482.00;;;20.28;47.56
52957;BME280;38819;42.692;23.342;2023-08-08T09:58:22;95485.28;;;20.34;47.31
52957;BME280;38819;42.692;23.342;2023-08-08T10:00:51;95474.31;;;20.34;47.59
52957;BME280;38819;42.692;23.342;2023-08-08T10:03:17;95481.25;;;20.44;47.47
52957;BME280;38819;42.692;23.342;2023-08-08T10:05:44;95476.63;;;20.48;47.29
52957;BME280;38819;42.692;23.342;2023-08-08T10:08:10;95460.56;;;20.62;47.30
52957;BME280;38819;42.692;23.342;2023-08-08T10:10:36;95473.53;;;20.78;47.89
52957;BME280;38819;42.692;23.342;2023-08-08T10:13:03;95473.09;;;20.76;47.44
52957;BME280;38819;42.692;23.342;2023-08-08T10:15:29;95470.72;;;20.74;46.98
52957;BME280;38819;42.692;23.342;2023-08-08T10:17:57;95482.22;;;20.64;47.48
52957;BME280;38819;42.692;23.342;2023-08-08T10:20:24;95477.00;;;20.75;47.99
52957;BME280;38819;42.692;23.342;2023-08-08T10:22:52;95477.09;;;20.78;47.49
52957;BME280;38819;42.692;23.342;2023-08-08T10:25:24;95483.09;;;20.68;47.45
52957;BME280;38819;42.692;23.342;2023-08-08T10:28:12;95475.09;;;20.63;47.15
52957;BME280;38819;42.692;23.342;2023-08-08T10:30:47;95479.56;;;20.67;47.25
52957;BME280;38819;42.692;23.342;2023-08-08T10:33:22;95490.63;;;20.71;47.29
52957;BME280;38819;42.692;23.342;2023-08-08T10:36:05;95483.56;;;20.70;46.80
52957;BME280;38819;42.692;23.342;2023-08-08T10:38:47;95477.25;;;20.69;46.83
52957;BME280;38819;42.692;23.342;2023-08-08T10:41:19;95467.63;;;20.76;47.09
52957;BME280;38819;42.692;23.342;2023-08-08T10:43:52;95472.66;;;20.73;47.15
52957;BME280;38819;42.692;23.342;2023-08-08T10:46:30;95463.47;;;20.53;47.19
52957;BME280;38819;42.692;23.342;2023-08-08T10:48:58;95447.44;;;20.55;47.61
52957;BME280;38819;42.692;23.342;2023-08-08T10:54:06;95456.00;;;20.66;46.82
52957;BME280;38819;42.692;23.342;2023-08-08T10:56:34;95453.63;;;20.65;47.27
52957;BME280;38819;42.692;23.342;2023-08-08T10:58:59;95460.34;;;20.67;46.96
52957;BME280;38819;42.692;23.342;2023-08-08T11:01:25;95453.38;;;20.70;47.12
52957;BME280;38819;42.692;23.342;2023-08-08T11:03:52;95461.00;;;20.77;47.48
52957;BME280;38819;42.692;23.342;2023-08-08T11:06:17;95450.19;;;20.84;46.81
52957;BME280;38819;42.692;23.342;2023-08-08T11:08:44;95458.41;;;21.00;46.24
52957;BME280;38819;42.692;23.342;2023-08-08T11:11:09;95454.88;;;20.83;46.25
52957;BME280;38819;42.692;23.342;2023-08-08T11:13:35;95450.44;;;20.95;46.67
52957;BME280;38819;42.692;23.342;2023-08-08T11:16:00;95448.94;;;20.81;47.15
52957;BME280;38819;42.692;23.342;2023-08-08T11:18:29;95454.34;;;20.94;47.05
52957;BME280;38819;42.692;23.342;2023-08-08T11:20:55;95456.75;;;21.11;46.68
52957;BME280;38819;42.692;23.342;2023-08-08T11:23:20;95441.69;;;21.21;46.30
52957;BME280;38819;42.692;23.342;2023-08-08T11:25:46;95436.91;;;21.34;46.32
52957;BME280;38819;42.692;23.342;2023-08-08T11:28:12;95433.34;;;21.33;45.86
52957;BME280;38819;42.692;23.342;2023-08-08T11:30:41;95437.84;;;21.41;45.50
52957;BME280;38819;42.692;23.342;2023-08-08T11:33:07;95434.50;;;21.48;45.90
52957;BME280;38819;42.692;23.342;2023-08-08T11:35:33;95438.03;;;21.33;46.00
52957;BME280;38819;42.692;23.342;2023-08-08T11:38:02;95438.16;;;21.20;46.07
52957;BME280;38819;42.692;23.342;2023-08-08T11:40:29;95433.34;;;21.33;45.78
52957;BME280;38819;42.692;23.342;2023-08-08T11:42:56;95452.41;;;21.42;46.28
52957;BME280;38819;42.692;23.342;2023-08-08T11:45:24;95440.44;;;21.34;45.70
52957;BME280;38819;42.692;23.342;2023-08-08T11:47:51;95429.88;;;21.36;46.17
52957;BME280;38819;42.692;23.342;2023-08-08T11:50:20;95422.53;;;21.40;45.99
52957;BME280;38819;42.692;23.342;2023-08-08T11:52:46;95414.47;;;21.48;46.24
52957;BME280;38819;42.692;23.342;2023-08-08T11:55:12;95437.31;;;21.52;45.94
52957;BME280;38819;42.692;23.342;2023-08-08T11:57:39;95424.31;;;21.49;45.47
52957;BME280;38819;42.692;23.342;2023-08-08T12:00:10;95414.63;;;21.55;45.94
52957;BME280;38819;42.692;23.342;2023-08-08T12:02:42;95421.44;;;21.61;45.46
52957;BME280;38819;42.692;23.342;2023-08-08T12:05:10;95423.84;;;21.62;45.13
52957;BME280;38819;42.692;23.342;2023-08-08T12:07:37;95416.59;;;21.54;45.68
52957;BME280;38819;42.692;23.342;2023-08-08T12:10:04;95423.31;;;21.57;45.24
52957;BME280;38819;42.692;23.342;2023-08-08T12:12:33;95415.09;;;21.57;45.23
52957;BME280;38819;42.692;23.342;2023-08-08T12:15:05;95402.28;;;21.64;44.91
52957;BME280;38819;42.692;23.342;2023-08-08T12:17:31;95406.84;;;21.76;45.12
52957;BME280;38819;42.692;23.342;2023-08-08T12:20:00;95406.34;;;21.71;44.58
52957;BME280;38819;42.692;23.342;2023-08-08T12:22:26;95385.22;;;21.55;45.04
52957;BME280;38819;42.692;23.342;2023-08-08T12:24:51;95394.38;;;21.63;45.10
52957;BME280;38819;42.692;23.342;2023-08-08T12:27:17;95385.34;;;21.62;45.15
52957;BME280;38819;42.692;23.342;2023-08-08T12:29:42;95385.66;;;21.77;45.00
52957;BME280;38819;42.692;23.342;2023-08-08T12:32:08;95401.69;;;21.55;45.34
52957;BME280;38819;42.692;23.342;2023-08-08T12:34:34;95391.63;;;21.63;44.79
52957;BME280;38819;42.692;23.342;2023-08-08T12:37:00;95387.59;;;21.57;44.61
52957;BME280;38819;42.692;23.342;2023-08-08T12:39:25;95376.75;;;21.64;44.83
52957;BME280;38819;42.692;23.342;2023-08-08T12:41:51;95393.91;;;21.77;45.15
52957;BME280;38819;42.692;23.342;2023-08-08T12:44:17;95395.84;;;21.76;44.78
52957;BME280;38819;42.692;23.342;2023-08-08T12:46:42;95384.75;;;21.89;44.36
52957;BME280;38819;42.692;23.342;2023-08-08T12:49:07;95378.88;;;21.90;44.37